createdAt,value
2018-11-04T00:04:59.008Z,4.07
2018-11-04T00:10:02.662Z,3.77
2018-11-04T00:15:07.120Z,5.17
2018-11-04T00:20:12.255Z,4.30
2018-11-04T00:25:15.672Z,4.53
2018-11-04T00:30:19.221Z,3.97
2018-11-04T00:35:22.669Z,5.30
2018-11-04T00:40:25.985Z,4.93
2018-11-04T00:45:29.519Z,4.20
2018-11-04T00:50:32.868Z,5.33
2018-11-04T00:55:36.257Z,4.43
2018-11-04T01:00:39.707Z,4.70
2018-11-04T01:05:43.028Z,4.30
2018-11-04T01:10:46.556Z,5.10
2018-11-04T01:15:49.946Z,4.43
2018-11-04T01:20:53.296Z,5.93
2018-11-04T01:25:56.791Z,4.33
2018-11-04T01:31:00.114Z,4.73
2018-11-04T01:36:03.504Z,5.70
2018-11-04T01:41:07.286Z,5.40
2018-11-04T01:46:10.857Z,4.97
2018-11-04T01:51:14.412Z,4.27
2018-11-04T01:56:17.971Z,5.10
2018-11-04T02:01:21.451Z,5.43
2018-11-04T02:06:24.983Z,4.53
2018-11-04T02:11:28.477Z,4.47
2018-11-04T02:16:32.040Z,4.93
2018-11-04T02:21:35.497Z,5.07
2018-11-04T02:26:38.827Z,4.33
2018-11-04T02:31:44.393Z,4.40
2018-11-04T02:36:47.729Z,4.60
2018-11-04T02:41:51.142Z,4.60
2018-11-04T02:46:54.545Z,5.43
2018-11-04T02:51:57.974Z,4.63
2018-11-04T02:57:01.361Z,4.40
2018-11-04T03:02:05.405Z,5.10
2018-11-04T03:07:08.741Z,3.40
2018-11-04T03:12:12.182Z,4.50
2018-11-04T03:17:15.581Z,4.93
2018-11-04T03:22:19.031Z,4.23
2018-11-04T03:27:22.509Z,3.67
2018-11-04T03:32:25.877Z,3.80
2018-11-04T03:37:29.227Z,3.40
2018-11-04T03:42:32.750Z,3.93
2018-11-04T03:47:36.265Z,2.70
2018-11-04T03:52:39.628Z,3.47
2018-11-04T03:57:42.974Z,2.77
2018-11-04T04:02:46.543Z,3.43
2018-11-04T04:07:49.950Z,4.67
2018-11-04T04:12:53.294Z,3.57
2018-11-04T04:17:56.749Z,3.27
2018-11-04T04:23:00.117Z,4.23
2018-11-04T04:28:03.549Z,3.80
2018-11-04T04:33:11.089Z,4.03
2018-11-04T04:38:14.473Z,4.00
2018-11-04T04:43:17.882Z,3.87
2018-11-04T04:48:21.492Z,4.10
2018-11-04T04:53:25.547Z,3.60
2018-11-04T04:58:28.852Z,4.73
2018-11-04T05:03:32.198Z,4.07
2018-11-04T05:08:35.597Z,4.03
2018-11-04T05:13:39.125Z,3.60
2018-11-04T05:18:42.572Z,4.50
2018-11-04T05:23:45.907Z,4.03
2018-11-04T05:28:49.325Z,3.80
2018-11-04T05:33:52.693Z,4.40
2018-11-04T05:38:56.047Z,4.60
2018-11-04T05:43:59.488Z,5.83
2018-11-04T05:49:02.889Z,5.07
2018-11-04T05:54:07.145Z,5.90
2018-11-04T05:59:10.678Z,5.67
2018-11-04T06:04:13.841Z,6.33
2018-11-04T06:09:17.219Z,5.63
2018-11-04T06:14:20.469Z,5.50
2018-11-04T06:19:23.906Z,5.17
2018-11-04T06:24:27.270Z,5.43
2018-11-04T06:29:30.734Z,5.43
2018-11-04T06:34:34.142Z,6.17
2018-11-04T06:39:37.500Z,4.77
2018-11-04T06:44:40.852Z,6.17
2018-11-04T06:49:44.294Z,5.40
2018-11-04T06:54:47.835Z,5.57
2018-11-04T06:59:50.923Z,6.03
2018-11-04T07:04:54.309Z,5.87
2018-11-04T07:09:57.642Z,5.37
2018-11-04T07:15:01.095Z,4.63
2018-11-04T07:20:05.241Z,4.83
2018-11-04T07:25:08.546Z,5.17
2018-11-04T07:30:12.606Z,4.57
2018-11-04T07:35:17.149Z,5.57
2018-11-04T07:40:20.589Z,5.10
2018-11-04T07:45:24.003Z,5.90
2018-11-04T07:50:27.718Z,5.40
2018-11-04T07:55:30.888Z,8.33
2018-11-04T08:00:34.332Z,9.40
2018-11-04T08:05:37.409Z,6.73
2018-11-04T08:10:40.924Z,4.77
2018-11-04T08:15:44.355Z,4.70
2018-11-04T08:20:47.697Z,5.10
2018-11-04T08:25:51.207Z,5.33
2018-11-04T08:30:54.841Z,5.97
2018-11-04T08:35:58.488Z,5.47
2018-11-04T08:41:01.905Z,4.67
2018-11-04T08:46:05.448Z,3.80
2018-11-04T08:51:08.866Z,4.37
2018-11-04T08:56:12.393Z,4.63
2018-11-04T09:01:15.959Z,6.23
2018-11-04T09:06:19.613Z,7.33
2018-11-04T09:11:22.973Z,5.17
2018-11-04T09:16:26.376Z,4.97
2018-11-04T09:21:29.795Z,3.63
2018-11-04T09:26:33.169Z,4.07
2018-11-04T09:31:36.504Z,4.10
2018-11-04T09:36:40.092Z,4.13
2018-11-04T09:41:43.429Z,5.87
2018-11-04T09:46:46.853Z,5.00
2018-11-04T09:51:50.445Z,3.40
2018-11-04T09:56:53.805Z,4.33
2018-11-04T10:01:57.318Z,3.67
2018-11-04T10:07:00.784Z,4.43
2018-11-04T10:12:04.354Z,7.90
2018-11-04T10:17:07.932Z,8.80
2018-11-04T10:22:11.437Z,5.27
2018-11-04T10:27:14.856Z,4.50
2018-11-04T10:32:18.414Z,5.90
2018-11-04T10:37:21.870Z,8.87
2018-11-04T10:42:25.257Z,3.40
2018-11-04T10:47:28.757Z,5.35
2018-11-04T10:52:32.084Z,4.97
2018-11-04T10:57:35.453Z,3.17
2018-11-04T11:02:39.109Z,3.87
2018-11-04T11:07:42.725Z,3.87
2018-11-04T11:12:46.105Z,4.07
2018-11-04T11:17:49.502Z,5.03
2018-11-04T11:22:53.078Z,4.13
2018-11-04T11:27:56.425Z,5.90
2018-11-04T11:32:59.818Z,5.00
2018-11-04T11:38:03.222Z,4.43
2018-11-04T11:43:06.550Z,3.10
2018-11-04T11:48:10.265Z,4.10
2018-11-04T11:53:13.601Z,4.30
2018-11-04T11:58:17.110Z,3.53
2018-11-04T12:03:20.609Z,4.10
2018-11-04T12:08:24.050Z,4.20
2018-11-04T12:13:27.610Z,3.23
2018-11-04T12:18:30.752Z,3.23
2018-11-04T12:23:34.262Z,3.40
2018-11-04T12:28:37.416Z,4.63
2018-11-04T12:33:40.875Z,3.80
2018-11-04T12:38:44.365Z,3.93
2018-11-04T12:43:47.741Z,3.70
2018-11-04T12:48:51.270Z,4.00
2018-11-04T12:53:54.661Z,4.07
2018-11-04T12:58:58.089Z,3.57
2018-11-04T13:04:01.491Z,3.57
2018-11-04T13:09:07.246Z,3.87
2018-11-04T13:14:10.610Z,3.17
2018-11-04T13:19:14.006Z,3.70
2018-11-04T13:24:17.449Z,4.37
2018-11-04T13:29:20.826Z,4.12
2018-11-04T13:34:24.221Z,3.83
2018-11-04T13:39:27.552Z,3.90
2018-11-04T13:44:30.935Z,4.80
2018-11-04T13:49:34.456Z,3.80
2018-11-04T13:54:37.858Z,5.37
2018-11-04T13:59:41.307Z,4.60
2018-11-04T14:04:45.677Z,5.17
2018-11-04T14:09:49.086Z,4.37
2018-11-04T14:14:52.388Z,5.00
2018-11-04T14:19:55.797Z,3.50
2018-11-04T14:24:59.272Z,4.77
2018-11-04T14:30:02.654Z,5.15
2018-11-04T14:35:06.834Z,5.27
2018-11-04T14:40:12.320Z,4.47
2018-11-04T14:45:15.394Z,6.25
2018-11-04T14:50:19.684Z,6.27
2018-11-04T14:55:23.285Z,4.27
2018-11-04T15:00:26.761Z,4.70
2018-11-04T15:05:30.278Z,4.43
2018-11-04T15:10:33.698Z,4.20
2018-11-04T15:15:37.021Z,4.57
2018-11-04T15:20:40.562Z,4.87
2018-11-04T15:25:43.917Z,3.77
2018-11-04T15:30:47.324Z,4.80
2018-11-04T15:35:50.721Z,4.73
2018-11-04T15:40:54.165Z,4.67
2018-11-04T15:45:57.731Z,4.73
2018-11-04T15:51:01.307Z,5.13
2018-11-04T15:56:04.829Z,5.27
2018-11-04T16:01:08.194Z,5.20
2018-11-04T16:06:11.713Z,6.13
2018-11-04T16:11:15.135Z,5.93
2018-11-04T16:16:18.585Z,6.50
2018-11-04T16:21:22.270Z,6.87
2018-11-04T16:26:25.733Z,6.37
2018-11-04T16:31:29.396Z,5.70
2018-11-04T16:36:32.482Z,6.40
2018-11-04T16:41:36.169Z,5.87
2018-11-04T16:46:39.881Z,4.80
2018-11-04T16:51:43.196Z,5.33
2018-11-04T16:56:46.816Z,5.03
2018-11-04T17:01:50.252Z,5.43
2018-11-04T17:06:53.757Z,7.20
2018-11-04T17:11:57.243Z,6.57
2018-11-04T17:17:00.879Z,5.37
2018-11-04T17:22:04.282Z,5.17
2018-11-04T17:27:07.993Z,5.87
2018-11-04T17:32:11.582Z,7.57
2018-11-04T17:37:15.152Z,12.27
2018-11-04T17:42:18.876Z,6.73
2018-11-04T17:47:22.272Z,6.13
2018-11-04T17:52:25.753Z,5.87
2018-11-04T17:57:29.242Z,6.37
2018-11-04T18:02:32.838Z,6.00
2018-11-04T18:07:36.386Z,6.27
2018-11-04T18:12:39.938Z,8.63
2018-11-04T18:17:43.270Z,7.87
2018-11-04T18:22:46.609Z,7.43
2018-11-04T18:27:50.077Z,7.03
2018-11-04T18:32:53.575Z,6.77
2018-11-04T18:37:57.042Z,8.10
2018-11-04T18:43:00.778Z,7.20
2018-11-04T18:48:04.498Z,6.80
2018-11-04T18:53:08.305Z,7.03
2018-11-04T18:58:12.203Z,8.60
2018-11-04T19:03:16.093Z,7.13
2018-11-04T19:08:19.717Z,6.80
2018-11-04T19:13:23.193Z,6.57
2018-11-04T19:18:26.816Z,7.13
2018-11-04T19:23:30.498Z,6.73
2018-11-04T19:28:33.950Z,5.57
2018-11-04T19:33:37.603Z,5.67
2018-11-04T19:38:41.546Z,6.37
2018-11-04T19:43:45.213Z,6.17
2018-11-04T19:48:48.769Z,7.17
2018-11-04T19:53:52.173Z,15.03
2018-11-04T19:58:55.779Z,10.07
2018-11-04T20:03:59.237Z,8.63
2018-11-04T20:09:08.220Z,8.00
2018-11-04T20:14:14.959Z,8.70
2018-11-04T20:19:23.637Z,8.23
2018-11-04T20:26:34.478Z,7.03
2018-11-04T20:31:43.234Z,6.40
2018-11-04T20:36:46.641Z,12.23
2018-11-04T20:41:50.087Z,9.10
2018-11-04T20:46:53.448Z,7.63
2018-11-04T20:51:57.027Z,8.73
2018-11-04T20:57:05.585Z,8.53
2018-11-04T21:02:08.939Z,7.40
2018-11-04T21:07:12.416Z,5.90
2018-11-04T21:12:15.906Z,6.63
2018-11-04T21:17:19.292Z,5.43
2018-11-04T21:22:22.644Z,5.23
2018-11-04T21:27:26.148Z,5.47
2018-11-04T21:32:29.416Z,5.53
2018-11-04T21:37:32.832Z,7.10
2018-11-04T21:42:36.355Z,6.83
2018-11-04T21:47:39.629Z,8.07
2018-11-04T21:52:42.912Z,7.30
2018-11-04T21:57:46.349Z,6.77
2018-11-04T22:02:49.659Z,6.40
2018-11-04T22:07:53.017Z,5.33
2018-11-04T22:12:56.297Z,5.20
2018-11-04T22:17:59.605Z,4.50
2018-11-04T22:23:02.954Z,5.23
2018-11-04T22:28:06.331Z,4.73
2018-11-04T22:33:09.687Z,4.83
2018-11-04T22:38:13.029Z,5.20
2018-11-04T22:43:16.457Z,6.27
2018-11-04T22:48:19.774Z,5.95
2018-11-04T22:53:23.083Z,7.53
2018-11-04T22:58:26.386Z,5.70
2018-11-04T23:03:29.728Z,5.00
2018-11-04T23:08:33.066Z,4.83
2018-11-04T23:13:36.603Z,5.00
2018-11-04T23:18:40.243Z,5.90
2018-11-04T23:23:43.759Z,4.97
2018-11-04T23:28:47.271Z,6.13
2018-11-04T23:33:50.728Z,4.30
2018-11-04T23:38:54.050Z,5.10
2018-11-04T23:43:57.389Z,3.60
2018-11-04T23:49:00.706Z,4.30
2018-11-04T23:54:04.163Z,6.10
2018-11-04T23:59:07.590Z,5.10
